Time;durP1;ratioP1;P1;durP2;ratioP2;P2;SDS_P1;SDS_P2;PMS_P1;PMS_P2;Temp;Humidity;BMP_temperature;BMP_pressure;BME280_temperature;BME280_humidity;BME280_pressure;Samples;Min_cycle;Max_cycle;Signal;HPM_P1;HPM_P2
2023/03/30 00:02:37;;;;;;;16.40;9.30;;;;;;;6.98;60.97;100175.94;130683;1254;114701;-73
2023/03/30 00:05:41;;;;;;;18.00;9.20;;;;;;;6.98;61.24;100170.59;130697;1250;114704;-73
2023/03/30 00:08:44;;;;;;;16.20;9.20;;;;;;;6.99;61.09;100165.42;130642;1254;114752;-72
2023/03/30 00:11:46;;;;;;;15.50;9.70;;;;;;;7.00;61.40;100161.84;130785;1253;114860;-71
2023/03/30 00:14:49;;;;;;;17.90;9.90;;;;;;;7.01;61.42;100162.88;130577;1254;114840;-72
2023/03/30 00:17:53;;;;;;;15.10;9.20;;;;;;;7.01;61.44;100159.16;130731;1273;115124;-73
2023/03/30 00:21:01;;;;;;;17.20;9.20;;;;;;;7.02;61.56;100163.90;130346;1251;115275;-70
2023/03/30 00:24:03;;;;;;;12.30;8.10;;;;;;;7.02;61.79;100163.36;130698;1253;115150;-71
2023/03/30 00:27:05;;;;;;;14.30;8.70;;;;;;;7.01;61.67;100157.55;130649;1254;114727;-72
2023/03/30 00:30:14;;;;;;;13.50;8.00;;;;;;;7.00;61.77;100159.00;130784;1272;115151;-70
2023/03/30 00:33:16;;;;;;;15.50;8.50;;;;;;;7.01;61.80;100153.47;130418;1251;114916;-72
2023/03/30 00:36:18;;;;;;;14.00;8.50;;;;;;;6.99;62.07;100148.73;130642;1253;114784;-73
2023/03/30 00:39:25;;;;;;;14.20;8.70;;;;;;;6.99;62.09;100150.85;130876;1270;114798;-72
2023/03/30 00:42:27;;;;;;;16.00;8.50;;;;;;;7.00;62.15;100151.71;130036;1259;116341;-72
2023/03/30 00:45:35;;;;;;;15.00;9.10;;;;;;;7.01;62.07;100149.36;130709;1253;114757;-73
2023/03/30 00:48:39;;;;;;;13.40;8.40;;;;;;;7.03;62.42;100147.70;130680;1254;115260;-70
2023/03/30 00:51:42;;;;;;;12.80;8.60;;;;;;;7.04;62.49;100139.30;130489;1257;114911;-72
2023/03/30 00:54:46;;;;;;;13.60;8.60;;;;;;;7.05;62.87;100139.28;129968;1260;129636;-71
2023/03/30 00:57:50;;;;;;;14.60;8.70;;;;;;;7.06;63.05;100130.02;130525;1273;115327;-72
2023/03/30 01:00:52;;;;;;;14.30;8.70;;;;;;;7.07;63.46;100125.02;130528;1253;114744;-72
2023/03/30 01:03:57;;;;;;;12.20;8.50;;;;;;;7.07;63.34;100120.92;130528;1254;114766;-72
2023/03/30 01:07:00;;;;;;;13.20;8.40;;;;;;;7.06;63.62;100116.51;130674;1254;114878;-69
2023/03/30 01:10:03;;;;;;;16.10;8.70;;;;;;;7.06;63.92;100119.16;130592;1272;114721;-72
2023/03/30 01:13:05;;;;;;;9.80;7.50;;;;;;;7.06;63.75;100109.23;130635;1273;114814;-73
2023/03/30 01:16:35;;;;;;;13.50;7.90;;;;;;;7.04;63.82;100108.25;130529;1254;115309;-72
2023/03/30 01:19:53;;;;;;;12.60;8.50;;;;;;;6.99;63.87;100099.89;130603;1254;114855;-71
2023/03/30 01:23:26;;;;;;;13.70;8.50;;;;;;;6.98;64.00;100102.96;130649;1267;114820;-72
2023/03/30 01:26:43;;;;;;;13.30;8.00;;;;;;;6.97;63.91;100096.60;130238;1259;127525;-72
2023/03/30 01:30:13;;;;;;;10.90;7.10;;;;;;;6.95;63.94;100091.88;130554;1254;115189;-72
2023/03/30 01:33:24;;;;;;;13.50;7.60;;;;;;;6.95;63.99;100094.36;130555;1249;115440;-71
2023/03/30 01:36:38;;;;;;;15.10;8.00;;;;;;;6.98;64.11;100095.67;130502;1253;115034;-72
2023/03/30 01:40:13;;;;;;;10.90;7.70;;;;;;;6.98;64.09;100093.00;130334;1273;114804;-73
2023/03/30 01:43:27;;;;;;;12.20;7.40;;;;;;;6.99;64.29;100090.86;129550;1279;128842;-72
2023/03/30 01:46:39;;;;;;;11.10;7.70;;;;;;;6.98;64.20;100083.09;130073;1257;115227;-73
2023/03/30 01:49:45;;;;;;;19.20;7.70;;;;;;;6.97;64.25;100080.09;129711;1258;115066;-73
2023/03/30 01:52:55;;;;;;;11.50;7.50;;;;;;;6.96;64.22;100078.88;129977;1262;114856;-72
2023/03/30 01:56:02;;;;;;;9.10;7.20;;;;;;;6.98;64.27;100070.83;129682;1260;114955;-73
2023/03/30 01:59:19;;;;;;;10.80;6.60;;;;;;;6.98;64.32;100064.80;129803;1279;127792;-73
2023/03/30 02:02:23;;;;;;;10.40;6.90;;;;;;;6.98;64.42;100058.04;129982;1260;115323;-72
2023/03/30 02:05:26;;;;;;;12.30;6.90;;;;;;;6.97;64.43;100059.49;129903;1262;115589;-73
2023/03/30 02:08:31;;;;;;;12.60;7.20;;;;;;;6.95;64.56;100056.55;129777;1279;114836;-72
2023/03/30 02:11:33;;;;;;;;;;;;;;;6.94;64.63;100051.80;129827;1262;114888;-73
2023/03/30 02:14:37;;;;;;;12.40;6.50;;;;;;;6.92;64.53;100045.30;129710;1262;114894;-73
2023/03/30 02:17:41;;;;;;;12.10;6.50;;;;;;;6.90;64.66;100044.34;129864;1262;114856;-74
2023/03/30 02:20:43;;;;;;;9.80;6.40;;;;;;;6.89;64.47;100043.83;130334;1251;116304;-73
2023/03/30 02:23:45;;;;;;;13.20;7.40;;;;;;;6.88;64.66;100041.92;130493;1273;114747;-72
2023/03/30 02:26:50;;;;;;;12.00;6.30;;;;;;;6.87;64.78;100038.39;130527;1256;114788;-72
2023/03/30 02:29:53;;;;;;;11.50;6.50;;;;;;;6.87;64.84;100033.60;130401;1260;114917;-72
2023/03/30 02:32:55;;;;;;;11.00;6.90;;;;;;;6.87;64.87;100025.27;130637;1273;114641;-72
2023/03/30 02:36:30;;;;;;;13.30;7.80;;;;;;;6.87;64.92;100022.58;130488;1254;114730;-72
2023/03/30 02:39:45;;;;;;;11.50;7.20;;;;;;;6.87;64.88;100016.58;129678;1265;114740;-71
2023/03/30 02:43:05;;;;;;;7.70;6.20;;;;;;;6.88;64.84;100018.49;129771;1265;115273;-73
2023/03/30 02:46:24;;;;;;;9.70;6.30;;;;;;;6.87;65.04;100020.46;129375;1281;114860;-71
2023/03/30 02:49:33;;;;;;;8.30;6.50;;;;;;;6.88;65.21;100024.18;129691;1263;127933;-72
2023/03/30 02:52:45;;;;;;;12.60;7.40;;;;;;;6.90;65.14;100022.86;129517;1280;116398;-71
2023/03/30 02:55:56;;;;;;;12.00;7.30;;;;;;;6.91;65.21;100017.83;129446;1262;114887;-70
2023/03/30 02:59:01;;;;;;;12.90;8.50;;;;;;;6.93;65.34;100013.52;129668;1278;115237;-71
2023/03/30 03:02:16;;;;;;;16.20;9.30;;;;;;;6.93;65.41;100006.38;129781;1262;114803;-72
2023/03/30 03:05:19;;;;;;;16.30;9.70;;;;;;;6.95;65.49;99995.49;129805;1280;127799;-72
2023/03/30 03:08:23;;;;;;;14.80;8.70;;;;;;;6.96;65.45;99994.91;129631;1280;114940;-72
2023/03/30 03:11:26;;;;;;;15.30;8.40;;;;;;;6.97;65.49;99988.11;129699;1261;114938;-72
2023/03/30 03:14:28;;;;;;;12.10;7.00;;;;;;;6.99;65.60;99983.62;129738;1273;114910;-72
2023/03/30 03:17:33;;;;;;;13.10;8.00;;;;;;;6.99;65.49;99981.64;130518;1273;115179;-72
2023/03/30 03:20:36;;;;;;;10.10;6.90;;;;;;;7.00;65.57;99977.35;130671;1270;128819;-72
2023/03/30 03:23:38;;;;;;;11.80;7.80;;;;;;;7.01;65.83;99973.41;130542;1254;114730;-72
2023/03/30 03:26:40;;;;;;;14.70;8.20;;;;;;;7.02;65.46;99972.13;130475;1255;115237;-71
2023/03/30 03:29:42;;;;;;;11.90;7.20;;;;;;;7.03;65.73;99971.18;130722;1267;114688;-72
2023/03/30 03:32:45;;;;;;;13.50;7.60;;;;;;;7.04;65.78;99968.13;130380;1258;114904;-71
2023/03/30 03:35:47;;;;;;;10.30;7.20;;;;;;;7.05;65.79;99961.35;130588;1254;114744;-74
2023/03/30 03:38:49;;;;;;;11.60;7.70;;;;;;;7.06;65.74;99951.73;130453;1273;114829;-72
2023/03/30 03:41:52;;;;;;;11.20;7.60;;;;;;;7.07;65.68;99947.77;130525;1250;114666;-71
2023/03/30 03:44:54;;;;;;;11.80;7.80;;;;;;;7.08;65.77;99943.30;130639;1270;114750;-72
2023/03/30 03:47:57;;;;;;;9.30;6.80;;;;;;;7.08;65.91;99937.44;130400;1252;114776;-72
2023/03/30 03:51:07;;;;;;;16.40;6.90;;;;;;;7.09;65.71;99928.00;130281;1254;115125;-71
2023/03/30 03:54:14;;;;;;;14.90;7.80;;;;;;;7.10;65.98;99919.79;130714;1251;114832;-74
2023/03/30 03:57:26;;;;;;;11.70;7.30;;;;;;;7.11;65.71;99917.98;130792;1273;128762;-73
2023/03/30 04:00:35;;;;;;;13.40;7.40;;;;;;;7.12;65.64;99913.09;130759;1266;115243;-73
2023/03/30 04:03:37;;;;;;;11.20;7.50;;;;;;;7.14;65.92;99905.75;130489;1255;114964;-73
2023/03/30 04:06:39;;;;;;;16.60;7.90;;;;;;;7.15;66.05;99896.66;130543;1254;115245;-73
2023/03/30 04:09:41;;;;;;;10.80;7.10;;;;;;;7.16;65.96;99888.64;130510;1254;114801;-72
2023/03/30 04:12:44;;;;;;;12.30;7.80;;;;;;;7.17;66.01;99888.95;130444;1259;114859;-73
2023/03/30 04:15:45;;;;;;;12.50;7.80;;;;;;;7.20;65.94;99898.60;130805;1252;115269;-73
2023/03/30 04:18:49;;;;;;;9.80;7.00;;;;;;;7.22;66.14;99914.11;130756;1253;114756;-73
2023/03/30 04:21:51;;;;;;;12.60;8.20;;;;;;;7.25;66.36;99925.02;130779;1273;115249;-73
2023/03/30 04:24:58;;;;;;;12.60;7.80;;;;;;;7.27;66.11;99927.63;130763;1273;114724;-73
2023/03/30 04:28:00;;;;;;;15.20;8.30;;;;;;;7.28;66.44;99927.22;130447;1273;114865;-73
2023/03/30 04:31:04;;;;;;;14.80;8.60;;;;;;;7.28;66.85;99928.96;130691;1251;114702;-73
2023/03/30 04:34:08;;;;;;;13.10;8.30;;;;;;;7.29;67.07;99914.91;130351;1258;127993;-72
2023/03/30 04:37:10;;;;;;;16.40;9.40;;;;;;;7.27;67.27;99909.46;130389;1252;115159;-71
2023/03/30 04:40:15;;;;;;;14.40;9.00;;;;;;;7.27;67.33;99903.09;130846;1270;114824;-70
2023/03/30 04:43:21;;;;;;;15.70;9.20;;;;;;;7.26;67.69;99886.09;130511;1273;114695;-72
2023/03/30 04:46:23;;;;;;;17.20;11.40;;;;;;;7.25;67.93;99885.25;130488;1251;114863;-70
2023/03/30 04:49:27;;;;;;;17.20;10.10;;;;;;;7.24;68.10;99888.48;130607;1273;129732;-72
2023/03/30 04:52:29;;;;;;;14.50;9.60;;;;;;;7.23;68.37;99884.95;130677;1269;114730;-72
2023/03/30 04:55:31;;;;;;;18.40;9.60;;;;;;;7.23;68.49;99885.67;130863;1272;115320;-71
2023/03/30 04:58:33;;;;;;;13.50;9.60;;;;;;;7.23;68.75;99890.09;130372;1258;114910;-73
2023/03/30 05:01:35;;;;;;;14.30;10.00;;;;;;;7.23;68.84;99886.20;130807;1254;115144;-71
2023/03/30 05:04:38;;;;;;;17.10;10.00;;;;;;;7.23;68.94;99869.16;130610;1273;114731;-69
2023/03/30 05:07:41;;;;;;;17.40;9.50;;;;;;;7.22;69.41;99870.08;130018;1273;114869;-71
2023/03/30 05:10:43;;;;;;;15.70;9.90;;;;;;;7.22;69.32;99875.21;130121;1251;114702;-71
2023/03/30 05:13:46;;;;;;;15.90;9.70;;;;;;;7.22;69.68;99873.97;130433;1257;114719;-69
2023/03/30 05:16:48;;;;;;;14.50;10.30;;;;;;;7.23;69.94;99867.91;130249;1257;115319;-70
2023/03/30 05:19:50;;;;;;;19.70;12.00;;;;;;;7.24;69.81;99869.83;130447;1272;115133;-70
2023/03/30 05:22:52;;;;;;;15.80;9.90;;;;;;;7.25;70.00;99863.73;130511;1254;114702;-70
2023/03/30 05:25:55;;;;;;;14.50;10.10;;;;;;;7.26;70.23;99859.06;130377;1254;114785;-70
2023/03/30 05:28:57;;;;;;;14.00;10.10;;;;;;;7.29;70.35;99860.89;130440;1272;115405;-71
2023/03/30 05:31:59;;;;;;;17.10;9.80;;;;;;;7.32;70.37;99857.91;130516;1272;115086;-69
2023/03/30 05:35:02;;;;;;;15.60;9.50;;;;;;;7.36;70.21;99861.30;130674;1262;129050;-70
2023/03/30 05:38:06;;;;;;;14.00;9.90;;;;;;;7.41;70.19;99856.47;130649;1251;115445;-70
2023/03/30 05:41:08;;;;;;;14.60;9.50;;;;;;;7.45;70.49;99857.37;130764;1254;114740;-70
2023/03/30 05:44:10;;;;;;;14.80;9.60;;;;;;;7.50;70.42;99852.37;130730;1273;115133;-69
2023/03/30 05:47:13;;;;;;;14.50;9.70;;;;;;;7.54;70.40;99851.26;130798;1254;114711;-70
2023/03/30 05:50:15;;;;;;;16.90;10.60;;;;;;;7.59;70.26;99851.25;130700;1251;114782;-70
2023/03/30 05:53:18;;;;;;;17.10;10.10;;;;;;;7.64;70.22;99854.93;130084;1251;128837;-70
2023/03/30 05:56:22;;;;;;;13.00;9.90;;;;;;;7.74;70.35;99852.03;130324;1251;114821;-70
2023/03/30 05:59:25;;;;;;;16.40;10.20;;;;;;;7.89;70.79;99852.06;130362;1255;115391;-70
2023/03/30 06:02:27;;;;;;;14.20;10.30;;;;;;;8.09;70.65;99850.23;130384;1254;114801;-71
2023/03/30 06:05:32;;;;;;;19.20;10.40;;;;;;;8.31;70.70;99849.58;130854;1254;114651;-70
2023/03/30 06:08:35;;;;;;;16.00;11.40;;;;;;;8.54;71.00;99854.90;130125;1260;128042;-70
2023/03/30 06:11:37;;;;;;;14.20;9.80;;;;;;;8.73;70.60;99857.18;130405;1251;115348;-70
2023/03/30 06:14:40;;;;;;;14.10;10.20;;;;;;;8.89;70.03;99854.30;130469;1272;114640;-69
2023/03/30 06:17:42;;;;;;;14.40;9.30;;;;;;;8.97;69.87;99836.27;130675;1256;114820;-71
2023/03/30 06:20:47;;;;;;;16.50;11.10;;;;;;;8.99;69.12;99817.30;130712;1253;114826;-70
2023/03/30 06:23:49;;;;;;;12.70;9.20;;;;;;;8.97;68.90;99816.46;130655;1251;114785;-70
2023/03/30 06:26:52;;;;;;;15.60;9.90;;;;;;;8.97;68.60;99814.36;130672;1251;114711;-71
2023/03/30 06:29:54;;;;;;;15.70;9.70;;;;;;;8.94;68.73;99812.69;130747;1254;114795;-71
2023/03/30 06:33:00;;;;;;;13.90;10.10;;;;;;;8.99;68.74;99816.40;130141;1273;115248;-70
2023/03/30 06:36:03;;;;;;;13.20;9.80;;;;;;;9.04;68.52;99808.27;130746;1254;114984;-72
2023/03/30 06:39:05;;;;;;;13.90;9.50;;;;;;;9.10;68.43;99803.90;130766;1253;114772;-70
2023/03/30 06:42:07;;;;;;;13.70;9.70;;;;;;;9.16;68.64;99811.22;130657;1251;114683;-72
2023/03/30 06:45:10;;;;;;;15.70;10.10;;;;;;;9.26;68.74;99810.21;130763;1252;115548;-72
2023/03/30 06:48:13;;;;;;;16.10;11.10;;;;;;;9.35;68.64;99818.45;130488;1273;127829;-72
2023/03/30 06:51:15;;;;;;;16.50;9.80;;;;;;;9.44;68.76;99818.52;130723;1273;115207;-71
2023/03/30 06:54:20;;;;;;;17.60;10.90;;;;;;;9.52;68.76;99822.19;130579;1254;115297;-71
2023/03/30 06:57:22;;;;;;;14.40;9.80;;;;;;;9.63;68.63;99826.81;130509;1257;114700;-68
2023/03/30 07:00:24;;;;;;;12.60;9.20;;;;;;;9.71;68.19;99820.84;130417;1257;114827;-73
2023/03/30 07:03:28;;;;;;;13.00;9.30;;;;;;;9.81;68.28;99816.77;130599;1251;115738;-72
2023/03/30 07:06:33;;;;;;;12.90;9.10;;;;;;;9.93;67.86;99812.20;130628;1253;128031;-71
2023/03/30 07:09:35;;;;;;;;;;;;;;;10.09;68.32;99811.13;130206;1259;114811;-71
2023/03/30 07:12:39;;;;;;;13.30;9.80;;;;;;;10.26;68.01;99811.23;130442;1270;115303;-71
2023/03/30 07:15:42;;;;;;;13.90;9.20;;;;;;;10.51;68.33;99804.54;130696;1253;114774;-72
2023/03/30 07:18:44;;;;;;;12.50;8.90;;;;;;;10.83;68.21;99798.39;130675;1254;114721;-72
2023/03/30 07:21:47;;;;;;;11.70;8.60;;;;;;;11.20;67.94;99786.58;130169;1252;114830;-72
2023/03/30 07:24:49;;;;;;;11.70;8.50;;;;;;;11.58;67.82;99784.11;130854;1254;114727;-72
2023/03/30 07:27:52;;;;;;;12.30;9.50;;;;;;;11.92;67.39;99790.91;130750;1273;115204;-71
2023/03/30 07:30:54;;;;;;;12.20;8.70;;;;;;;12.24;66.89;99791.07;130567;1251;114842;-71
2023/03/30 07:33:56;;;;;;;10.10;8.10;;;;;;;12.52;66.50;99781.52;130673;1252;114858;-72
2023/03/30 07:37:00;;;;;;;10.90;7.80;;;;;;;12.85;65.93;99762.84;130647;1257;114741;-72
2023/03/30 07:40:06;;;;;;;10.90;6.80;;;;;;;13.04;64.95;99754.40;130561;1254;115149;-70
2023/03/30 07:43:08;;;;;;;13.10;8.40;;;;;;;13.15;64.72;99753.61;130225;1252;128643;-69
2023/03/30 07:46:11;;;;;;;11.80;7.50;;;;;;;13.33;64.27;99760.83;130297;1253;361938;-72
2023/03/30 07:49:14;;;;;;;13.70;7.80;;;;;;;13.57;63.94;99757.56;130540;1251;114718;-71
2023/03/30 07:52:16;;;;;;;17.00;7.30;;;;;;;13.86;64.13;99747.14;130533;1251;114820;-70
2023/03/30 07:55:18;;;;;;;14.00;7.80;;;;;;;14.23;63.74;99738.09;130486;1260;114789;-71
2023/03/30 07:58:20;;;;;;;15.10;7.60;;;;;;;14.61;62.89;99734.77;130170;1257;114699;-71
2023/03/30 08:01:23;;;;;;;11.10;7.40;;;;;;;14.96;62.50;99720.45;130611;1256;114730;-71
2023/03/30 08:04:26;;;;;;;12.20;7.20;;;;;;;15.26;61.74;99716.02;130673;1257;114743;-71
2023/03/30 08:07:29;;;;;;;8.40;7.00;;;;;;;15.45;60.98;99709.46;130678;1258;115245;-71
2023/03/30 08:10:31;;;;;;;8.20;6.30;;;;;;;15.62;60.68;99700.20;130714;1254;115403;-70
2023/03/30 08:13:36;;;;;;;10.90;6.90;;;;;;;15.89;60.41;99705.80;130808;1253;114712;-68
2023/03/30 08:16:41;;;;;;;10.60;7.20;;;;;;;16.16;60.26;99698.59;130660;1252;114721;-70
2023/03/30 08:19:43;;;;;;;9.80;7.10;;;;;;;16.52;59.62;99693.62;130619;1253;128665;-70
2023/03/30 08:22:46;;;;;;;12.90;7.20;;;;;;;16.92;59.34;99692.02;130653;1253;114779;-71
2023/03/30 08:25:51;;;;;;;11.40;6.90;;;;;;;17.17;58.51;99692.11;130597;1254;114711;-72
2023/03/30 08:28:53;;;;;;;;;;;;;;;17.15;58.13;99692.23;130459;1254;115228;-72
2023/03/30 08:31:56;;;;;;;14.00;6.60;;;;;;;17.13;57.64;99689.90;130857;1254;114730;-71
2023/03/30 08:34:59;;;;;;;10.30;6.60;;;;;;;17.04;57.05;99690.71;130592;1251;114791;-70
2023/03/30 08:38:02;;;;;;;12.10;7.00;;;;;;;16.90;56.62;99688.42;130721;1253;114796;-69
2023/03/30 08:41:23;;;;;;;7.70;6.20;;;;;;;16.72;56.89;99677.85;130751;1254;115420;-69
2023/03/30 08:44:34;;;;;;;10.80;7.30;;;;;;;16.55;56.65;99676.40;130397;1250;114832;-71
2023/03/30 08:47:40;;;;;;;11.80;6.50;;;;;;;16.43;56.77;99672.21;130469;1257;114964;-71
2023/03/30 08:50:49;;;;;;;7.60;6.40;;;;;;;16.28;56.58;99664.23;130678;1254;114748;-70
2023/03/30 08:54:00;;;;;;;12.50;6.30;;;;;;;16.15;56.79;99661.73;130687;1253;128822;-71
2023/03/30 08:57:23;;;;;;;8.60;5.70;;;;;;;16.09;56.80;99654.98;130448;1256;115163;-71
2023/03/30 09:00:34;;;;;;;9.80;5.60;;;;;;;16.21;57.25;99663.39;130356;1260;114868;-72
2023/03/30 09:03:55;;;;;;;9.50;5.50;;;;;;;16.29;56.92;99663.45;130704;1251;116329;-71
2023/03/30 09:07:18;;;;;;;14.90;6.60;;;;;;;16.36;56.48;99657.27;130309;1260;114820;-71
2023/03/30 09:10:21;;;;;;;9.00;6.60;;;;;;;16.50;56.60;99652.11;130349;1270;127519;-71
2023/03/30 09:13:29;;;;;;;11.40;5.70;;;;;;;16.69;56.71;99644.55;130452;1256;115157;-70
2023/03/30 09:16:45;;;;;;;6.20;4.90;;;;;;;16.88;56.51;99629.27;130122;1273;114803;-70
2023/03/30 09:20:15;;;;;;;8.20;5.30;;;;;;;17.01;56.12;99621.45;130623;1251;114693;-71
2023/03/30 09:23:17;;;;;;;9.10;5.20;;;;;;;17.06;55.96;99616.85;130505;1257;114762;-71
2023/03/30 09:26:31;;;;;;;8.20;6.30;;;;;;;17.07;55.99;99610.67;130492;1257;114775;-70
2023/03/30 09:29:41;;;;;;;7.80;4.70;;;;;;;17.09;55.45;99597.30;130624;1272;114855;-69
2023/03/30 09:32:52;;;;;;;7.80;4.90;;;;;;;17.05;55.21;99596.77;130385;1251;114925;-70
2023/03/30 09:36:03;;;;;;;11.20;5.80;;;;;;;16.97;55.07;99595.12;130646;1251;114752;-71
2023/03/30 09:39:26;;;;;;;6.70;3.90;;;;;;;16.96;55.01;99597.70;130431;1260;114684;-71
2023/03/30 09:42:42;;;;;;;9.80;5.70;;;;;;;16.98;54.92;99594.51;130148;1272;129680;-70
2023/03/30 09:45:45;;;;;;;12.10;6.00;;;;;;;16.96;54.77;99587.64;130644;1272;115230;-70
2023/03/30 09:48:48;;;;;;;8.20;4.60;;;;;;;17.01;54.97;99574.41;130637;1254;114938;-69
2023/03/30 09:52:06;;;;;;;6.50;4.60;;;;;;;17.09;54.70;99571.03;130597;1253;115379;-71
2023/03/30 09:55:23;;;;;;;4.90;4.10;;;;;;;17.09;54.71;99560.76;130611;1250;114797;-70
2023/03/30 09:58:27;;;;;;;8.10;4.20;;;;;;;17.16;54.97;99553.39;130666;1257;128578;-70
2023/03/30 10:01:37;;;;;;;13.20;4.80;;;;;;;17.36;54.96;99541.17;130689;1270;114778;-71
2023/03/30 10:04:51;;;;;;;13.60;6.10;;;;;;;17.54;55.11;99541.86;130619;1253;115220;-71
2023/03/30 10:08:02;;;;;;;11.10;4.90;;;;;;;17.70;54.87;99536.43;130605;1267;114654;-71
2023/03/30 10:11:05;;;;;;;8.60;4.30;;;;;;;17.78;54.69;99530.62;130580;1256;114975;-72
2023/03/30 10:14:24;;;;;;;6.30;4.90;;;;;;;17.85;54.24;99533.45;130593;1257;128863;-71
2023/03/30 10:17:27;;;;;;;9.90;5.40;;;;;;;17.94;54.17;99536.80;130379;1259;114791;-70
2023/03/30 10:20:36;;;;;;;7.00;4.90;;;;;;;18.04;54.14;99534.66;130585;1251;115226;-70
2023/03/30 10:23:41;;;;;;;9.40;4.50;;;;;;;18.22;54.14;99537.65;130474;1258;114911;-71
2023/03/30 10:26:47;;;;;;;10.90;5.00;;;;;;;18.37;54.10;99536.24;130680;1251;114705;-73
2023/03/30 10:29:51;;;;;;;10.30;5.10;;;;;;;18.52;53.73;99534.69;130473;1259;127959;-72
2023/03/30 10:32:56;;;;;;;9.10;5.30;;;;;;;18.61;53.27;99540.31;130234;1251;114818;-73
2023/03/30 10:35:59;;;;;;;9.20;4.70;;;;;;;18.71;53.36;99540.50;130528;1257;114779;-73
2023/03/30 10:39:24;;;;;;;9.80;6.10;;;;;;;18.86;52.95;99535.54;130194;1258;114833;-70
2023/03/30 10:42:28;;;;;;;11.60;5.60;;;;;;;18.98;52.19;99528.61;130474;1267;114906;-70
2023/03/30 10:45:44;;;;;;;9.90;5.70;;;;;;;19.04;52.50;99520.73;130534;1273;128866;-72
2023/03/30 10:49:22;;;;;;;7.70;4.80;;;;;;;19.08;52.08;99518.83;130440;1250;115211;-72
2023/03/30 10:52:35;;;;;;;9.10;5.00;;;;;;;19.03;51.72;99510.80;129528;1266;114882;-73
2023/03/30 10:55:51;;;;;;;6.40;4.40;;;;;;;18.99;51.81;99509.00;129838;1281;115001;-71
2023/03/30 10:59:17;;;;;;;9.70;4.70;;;;;;;19.09;52.18;99509.30;129548;1268;114924;-72
2023/03/30 11:02:33;;;;;;;8.00;3.60;;;;;;;19.21;51.64;99513.39;129495;1268;127642;-72
2023/03/30 11:05:42;;;;;;;9.60;4.20;;;;;;;19.29;51.26;99509.71;129750;1262;115324;-70
2023/03/30 11:08:48;;;;;;;9.80;5.50;;;;;;;19.30;51.05;99510.53;129689;1265;114866;-71
2023/03/30 11:12:21;;;;;;;10.20;4.10;;;;;;;19.24;50.60;99502.05;129280;1263;115109;-72
2023/03/30 11:15:38;;;;;;;6.40;3.50;;;;;;;19.08;50.37;99509.02;129792;1261;114840;-72
2023/03/30 11:18:46;;;;;;;8.10;3.50;;;;;;;18.99;50.48;99505.79;129969;1260;128746;-72
2023/03/30 11:22:08;;;;;;;17.20;4.30;;;;;;;18.89;50.35;99499.15;129998;1281;115198;-71
2023/03/30 11:25:21;;;;;;;6.10;4.00;;;;;;;18.84;50.50;99502.11;129981;1262;114821;-72
2023/03/30 11:28:26;;;;;;;11.20;4.60;;;;;;;18.82;50.32;99507.61;130149;1262;114812;-72
2023/03/30 11:31:55;;;;;;;6.40;4.00;;;;;;;18.86;50.30;99517.45;130506;1265;115406;-72
2023/03/30 11:35:03;;;;;;;7.30;4.30;;;;;;;18.96;50.16;99529.23;130645;1255;128959;-71
2023/03/30 11:38:47;;;;;;;8.00;4.20;;;;;;;19.05;49.49;99534.73;130566;1257;115154;-71
2023/03/30 11:41:56;;;;;;;14.20;5.00;;;;;;;19.07;49.10;99540.09;129752;1265;115234;-72
2023/03/30 11:45:00;;;;;;;13.10;5.30;;;;;;;19.07;49.09;99544.44;129701;1263;115407;-72
2023/03/30 11:48:21;;;;;;;11.70;5.20;;;;;;;19.03;49.06;99559.52;129578;1268;114789;-72
2023/03/30 11:51:40;;;;;;;9.20;4.80;;;;;;;18.92;48.77;99556.56;129593;1260;128707;-70
2023/03/30 11:55:17;;;;;;;9.50;4.70;;;;;;;18.76;48.78;99555.04;129743;1262;114933;-72
2023/03/30 11:58:30;;;;;;;10.00;5.20;;;;;;;18.56;48.80;99553.98;129006;1274;114891;-72
2023/03/30 12:02:04;;;;;;;13.60;4.90;;;;;;;18.41;48.92;99554.36;129031;1274;114853;-72
2023/03/30 12:05:39;;;;;;;14.70;5.70;;;;;;;18.25;49.31;99553.08;129021;1275;114790;-72
2023/03/30 12:08:59;;;;;;;12.20;4.70;;;;;;;18.17;49.43;99553.50;129268;1270;127884;-72
2023/03/30 12:12:16;;;;;;;10.00;5.00;;;;;;;18.13;49.63;99550.10;129260;1269;116456;-72
2023/03/30 12:15:27;;;;;;;13.50;5.00;;;;;;;18.04;49.42;99554.73;129455;1279;114906;-72
2023/03/30 12:19:02;;;;;;;11.10;5.10;;;;;;;17.88;49.64;99559.86;129624;1265;115186;-73
2023/03/30 12:22:35;;;;;;;11.20;4.90;;;;;;;17.77;49.70;99563.98;129722;1266;114905;-72
2023/03/30 12:25:50;;;;;;;15.30;5.60;;;;;;;17.54;49.77;99561.02;129751;1270;129005;-72
2023/03/30 12:28:52;;;;;;;13.80;5.60;;;;;;;17.34;50.01;99552.88;129729;1266;114883;-72
2023/03/30 12:31:55;;;;;;;12.90;5.20;;;;;;;17.20;50.37;99555.55;129886;1281;114840;-73
2023/03/30 12:34:58;;;;;;;12.00;5.80;;;;;;;17.10;50.52;99547.65;129622;1273;114976;-72
2023/03/30 12:38:04;;;;;;;11.80;6.20;;;;;;;17.03;50.92;99543.75;130514;1257;114826;-72
2023/03/30 12:41:14;;;;;;;12.70;5.80;;;;;;;17.01;51.10;99536.88;130504;1257;129073;-72
2023/03/30 12:44:19;;;;;;;8.10;5.50;;;;;;;17.02;51.37;99530.33;130593;1264;115702;-72
2023/03/30 12:48:06;;;;;;;11.90;6.20;;;;;;;17.07;51.48;99531.14;130498;1257;114727;-73
2023/03/30 12:51:11;;;;;;;13.00;6.00;;;;;;;17.14;51.65;99524.67;130338;1260;115141;-74
2023/03/30 12:54:42;;;;;;;13.40;5.70;;;;;;;17.21;51.61;99519.94;130492;1264;114823;-73
2023/03/30 12:58:18;;;;;;;15.70;6.20;;;;;;;17.20;51.78;99514.77;130323;1267;127861;-73
2023/03/30 13:01:27;;;;;;;12.00;5.90;;;;;;;17.22;51.95;99511.23;130739;1253;115155;-86
2023/03/30 13:04:36;;;;;;;13.80;6.50;;;;;;;17.20;52.07;99514.41;130590;1257;114762;-73
2023/03/30 13:07:38;;;;;;;17.20;7.10;;;;;;;17.20;52.16;99514.09;130707;1256;114791;-69
2023/03/30 13:10:41;;;;;;;10.50;4.90;;;;;;;17.26;52.37;99514.61;130182;1273;114715;-72
2023/03/30 13:13:50;;;;;;;15.40;5.30;;;;;;;17.27;52.42;99511.48;130747;1254;114779;-76
2023/03/30 13:17:16;;;;;;;10.80;5.00;;;;;;;17.32;52.47;99508.83;130301;1263;115173;-77
2023/03/30 13:20:20;;;;;;;19.00;5.90;;;;;;;17.38;52.57;99498.60;130501;1262;114793;-72
2023/03/30 13:23:23;;;;;;;11.90;5.60;;;;;;;17.41;52.70;99502.62;130547;1260;114852;-72
2023/03/30 13:26:27;;;;;;;15.70;5.60;;;;;;;17.44;52.81;99499.79;130775;1260;114706;-75
2023/03/30 13:29:48;;;;;;;18.30;6.40;;;;;;;17.46;52.92;99495.46;130555;1257;127870;-70
2023/03/30 13:33:10;;;;;;;10.60;5.30;;;;;;;17.42;52.83;99492.73;129958;1254;115157;-70
2023/03/30 13:36:17;;;;;;;8.80;4.40;;;;;;;17.36;52.93;99488.30;130784;1257;114759;-72
2023/03/30 13:39:37;;;;;;;12.00;5.30;;;;;;;17.37;53.17;99486.71;130326;1264;114987;-70
2023/03/30 13:43:04;;;;;;;7.00;4.70;;;;;;;17.37;53.22;99482.79;130717;1263;114705;-70
2023/03/30 13:46:32;;;;;;;12.40;5.70;;;;;;;17.38;53.47;99477.65;130845;1263;129572;-76
2023/03/30 13:50:02;;;;;;;8.70;4.90;;;;;;;17.34;53.48;99475.11;130765;1272;114743;-78
2023/03/30 13:53:09;;;;;;;8.40;4.50;;;;;;;17.21;53.60;99472.44;130859;1253;114737;-77
2023/03/30 13:56:12;;;;;;;9.80;4.50;;;;;;;17.15;53.78;99461.84;130735;1259;114819;-77
2023/03/30 13:59:22;;;;;;;7.00;5.00;;;;;;;17.09;53.93;99459.16;130704;1273;115122;-75
2023/03/30 14:02:29;;;;;;;8.70;6.30;;;;;;;17.00;54.08;99451.21;130812;1263;128694;-76
2023/03/30 14:05:33;;;;;;;9.70;4.40;;;;;;;16.95;54.14;99443.94;130583;1251;115215;-76
2023/03/30 14:08:38;;;;;;;10.10;4.90;;;;;;;16.94;54.41;99438.77;130861;1254;114718;-77
2023/03/30 14:12:01;;;;;;;10.30;5.00;;;;;;;16.96;54.81;99429.94;130647;1264;114871;-76
2023/03/30 14:15:15;;;;;;;9.90;4.50;;;;;;;16.97;54.83;99417.99;130638;1258;114779;-72
2023/03/30 14:18:23;;;;;;;11.30;6.20;;;;;;;16.88;54.68;99408.11;130554;1255;127613;-71
2023/03/30 14:21:28;;;;;;;8.90;5.60;;;;;;;16.80;54.62;99402.73;130339;1270;116584;-76
2023/03/30 14:24:32;;;;;;;9.40;5.40;;;;;;;16.72;54.84;99394.39;130569;1264;114782;-76